Time;durP1;ratioP1;P1;durP2;ratioP2;P2;SDS_P1;SDS_P2;PMS_P1;PMS_P2;Temp;Humidity;BMP_temperature;BMP_pressure;BME280_temperature;BME280_humidity;BME280_pressure;Samples;Min_cycle;Max_cycle;Signal;HPM_P1;HPM_P2
2023/03/05 00:00:39;;;;;;;12.27;7.47;;;;;;;;;;5016541;28;20298;-79
2023/03/05 00:03:04;;;;;;;16.27;8.50;;;;;;;;;;4996426;28;20175;-79
2023/03/05 00:05:31;;;;;;;13.87;7.77;;;;;;;;;;5012378;28;20175;-79
2023/03/05 00:07:56;;;;;;;11.50;7.37;;;;;;;;;;5000887;28;20179;-79
2023/03/05 00:10:21;;;;;;;12.13;7.87;;;;;;;;;;5000920;28;20282;-79
2023/03/05 00:12:46;;;;;;;16.93;7.40;;;;;;;;;;5023345;28;20199;-79
2023/03/05 00:15:12;;;;;;;13.43;7.77;;;;;;;;;;4999750;28;20227;-79
2023/03/05 00:17:37;;;;;;;14.73;8.20;;;;;;;;;;5005653;28;20215;-79
2023/03/05 00:20:02;;;;;;;12.10;7.27;;;;;;;;;;5001063;28;20285;-79
2023/03/05 00:22:27;;;;;;;13.80;7.73;;;;;;;;;;4999631;28;20175;-79
2023/03/05 00:25:00;;;;;;;12.43;6.80;;;;;;;;;;5006708;28;20194;-79
2023/03/05 00:27:25;;;;;;;13.83;7.40;;;;;;;;;;5006885;28;20231;-79
2023/03/05 00:29:51;;;;;;;16.40;7.97;;;;;;;;;;5005736;28;20214;-79
2023/03/05 00:32:16;;;;;;;14.50;7.67;;;;;;;;;;5006221;28;20191;-79
2023/03/05 00:34:41;;;;;;;14.93;7.67;;;;;;;;;;5008664;28;20225;-79
2023/03/05 00:37:06;;;;;;;15.37;7.87;;;;;;;;;;5001856;28;20181;-79
2023/03/05 00:39:32;;;;;;;11.67;7.10;;;;;;;;;;5017539;28;20210;-79
2023/03/05 00:41:57;;;;;;;13.03;7.13;;;;;;;;;;5004977;28;20226;-79
2023/03/05 00:44:23;;;;;;;12.97;7.30;;;;;;;;;;5013054;28;20182;-79
2023/03/05 00:46:48;;;;;;;13.97;7.37;;;;;;;;;;5017232;28;20183;-79
2023/03/05 00:49:13;;;;;;;13.07;7.27;;;;;;;;;;5017852;28;20218;-79
2023/03/05 00:51:39;;;;;;;14.33;8.07;;;;;;;;;;5006084;28;20187;-79
2023/03/05 00:54:04;;;;;;;17.57;8.20;;;;;;;;;;5019646;28;20213;-79
2023/03/05 00:56:30;;;;;;;14.57;8.23;;;;;;;;;;5001272;28;20265;-79
2023/03/05 00:58:55;;;;;;;14.80;7.23;;;;;;;;;;5005743;28;20183;-79
2023/03/05 01:01:20;;;;;;;16.70;7.90;;;;;;;;;;5007476;28;20254;-79
2023/03/05 01:03:46;;;;;;;18.37;8.40;;;;;;;;;;5007100;28;20198;-79
2023/03/05 01:06:12;;;;;;;15.17;7.60;;;;;;;;;;5009265;28;20174;-79
2023/03/05 01:08:37;;;;;;;15.30;7.53;;;;;;;;;;4999823;28;20290;-79
2023/03/05 01:11:03;;;;;;;14.13;7.50;;;;;;;;;;5009134;28;20194;-79
2023/03/05 01:13:28;;;;;;;15.83;7.90;;;;;;;;;;4999374;28;20274;-79
2023/03/05 01:16:00;;;;;;;15.00;7.80;;;;;;;;;;4998824;28;20261;-79
2023/03/05 01:18:25;;;;;;;17.53;8.07;;;;;;;;;;5018545;28;20323;-79
2023/03/05 01:20:50;;;;;;;17.27;7.97;;;;;;;;;;5018136;28;20182;-79
2023/03/05 01:23:16;;;;;;;13.60;7.80;;;;;;;;;;5023374;28;20225;-79
2023/03/05 01:25:41;;;;;;;14.60;7.27;;;;;;;;;;5024675;28;20186;-79
2023/03/05 01:28:06;;;;;;;16.40;7.80;;;;;;;;;;5028377;28;20269;-79
2023/03/05 01:30:32;;;;;;;19.17;9.13;;;;;;;;;;5027424;28;20299;-79
2023/03/05 01:32:57;;;;;;;14.97;7.10;;;;;;;;;;5025693;28;20179;-79
2023/03/05 01:35:23;;;;;;;15.77;7.10;;;;;;;;;;5029429;28;20197;-79
2023/03/05 01:37:52;;;;;;;14.40;7.27;;;;;;;;;;5031114;28;20261;-79
2023/03/05 01:40:18;;;;;;;18.57;7.57;;;;;;;;;;5021684;28;20189;-79
2023/03/05 01:42:44;;;;;;;16.13;8.23;;;;;;;;;;5042429;28;20174;-79
2023/03/05 01:45:12;;;;;;;16.43;8.07;;;;;;;;;;5020763;28;20185;-79
2023/03/05 01:47:38;;;;;;;16.53;8.80;;;;;;;;;;5047207;28;20265;-79
2023/03/05 01:50:07;;;;;;;16.43;7.97;;;;;;;;;;5036875;28;20266;-79
2023/03/05 01:52:34;;;;;;;19.83;8.47;;;;;;;;;;5029769;28;20212;-79
2023/03/05 01:55:01;;;;;;;15.80;8.27;;;;;;;;;;5031172;28;20194;-79
2023/03/05 01:57:29;;;;;;;16.97;8.67;;;;;;;;;;5025188;28;20175;-79
2023/03/05 01:59:56;;;;;;;17.20;8.67;;;;;;;;;;5029749;28;20182;-79
2023/03/05 02:02:22;;;;;;;13.77;8.73;;;;;;;;;;5021222;28;20178;-79
2023/03/05 02:04:49;;;;;;;16.90;9.10;;;;;;;;;;5023829;28;20183;-79
2023/03/05 02:07:15;;;;;;;17.17;7.70;;;;;;;;;;5033798;28;20174;-79
2023/03/05 02:09:40;;;;;;;19.20;8.97;;;;;;;;;;5045985;28;20207;-79
2023/03/05 02:12:06;;;;;;;16.97;7.93;;;;;;;;;;5049973;28;20256;-79
2023/03/05 02:14:32;;;;;;;14.03;7.90;;;;;;;;;;5023868;28;20202;-79
2023/03/05 02:16:57;;;;;;;19.20;7.03;;;;;;;;;;5017341;28;20238;-79
2023/03/05 02:19:22;;;;;;;16.20;8.33;;;;;;;;;;5010711;28;20182;-79
2023/03/05 02:21:49;;;;;;;16.47;8.27;;;;;;;;;;5009658;28;20249;-79
2023/03/05 02:24:16;;;;;;;19.30;9.33;;;;;;;;;;5002483;28;20193;-79
2023/03/05 02:26:43;;;;;;;16.50;8.33;;;;;;;;;;5011393;28;20205;-79
2023/03/05 02:29:09;;;;;;;16.07;7.43;;;;;;;;;;5006406;28;20178;-79
2023/03/05 02:31:35;;;;;;;15.23;8.23;;;;;;;;;;5014617;28;20184;-79
2023/03/05 02:34:00;;;;;;;14.97;7.33;;;;;;;;;;5002931;28;20203;-79
2023/03/05 02:36:25;;;;;;;18.67;7.60;;;;;;;;;;5011492;28;20269;-79
2023/03/05 02:38:52;;;;;;;18.80;8.73;;;;;;;;;;5011918;28;20188;-79
2023/03/05 02:41:17;;;;;;;21.97;8.73;;;;;;;;;;4998981;28;20186;-79
2023/03/05 02:43:42;;;;;;;21.30;8.87;;;;;;;;;;5005751;28;20179;-79
2023/03/05 02:46:08;;;;;;;18.87;8.40;;;;;;;;;;5003265;28;20175;-79
2023/03/05 02:48:33;;;;;;;17.80;8.33;;;;;;;;;;5005180;28;20183;-79
2023/03/05 02:50:59;;;;;;;17.10;8.37;;;;;;;;;;5006011;28;20183;-79
2023/03/05 02:53:25;;;;;;;17.03;9.00;;;;;;;;;;5004318;28;20211;-79
2023/03/05 02:55:50;;;;;;;22.90;9.57;;;;;;;;;;5008143;28;20214;-79
2023/03/05 02:58:16;;;;;;;18.00;8.73;;;;;;;;;;5007438;28;20183;-79
2023/03/05 03:00:42;;;;;;;16.97;9.17;;;;;;;;;;5009203;28;20248;-79
2023/03/05 03:03:07;;;;;;;18.37;8.83;;;;;;;;;;5000422;28;20198;-79
2023/03/05 03:05:33;;;;;;;14.00;7.83;;;;;;;;;;5005797;28;20179;-79
2023/03/05 03:07:59;;;;;;;17.27;8.13;;;;;;;;;;5004466;28;20187;-79
2023/03/05 03:10:24;;;;;;;16.43;8.63;;;;;;;;;;5012141;28;20185;-78
2023/03/05 03:12:49;;;;;;;20.00;9.47;;;;;;;;;;5004757;28;20290;-78
2023/03/05 03:15:15;;;;;;;19.60;8.60;;;;;;;;;;5023947;28;20209;-77
2023/03/05 03:17:41;;;;;;;18.20;8.60;;;;;;;;;;4999094;28;20219;-78
2023/03/05 03:20:08;;;;;;;16.30;8.07;;;;;;;;;;5021753;28;20190;-78
2023/03/05 03:22:33;;;;;;;18.03;8.80;;;;;;;;;;5008865;28;20236;-77
2023/03/05 03:24:59;;;;;;;21.37;8.67;;;;;;;;;;5006835;28;20182;-78
2023/03/05 03:27:24;;;;;;;15.77;8.37;;;;;;;;;;5005050;28;20183;-77
2023/03/05 03:29:49;;;;;;;18.63;8.93;;;;;;;;;;5002797;28;20183;-77
2023/03/05 03:32:15;;;;;;;17.63;8.73;;;;;;;;;;5004449;28;20186;-77
2023/03/05 03:34:40;;;;;;;20.23;8.37;;;;;;;;;;5010096;28;20194;-77
2023/03/05 03:37:05;;;;;;;19.40;8.97;;;;;;;;;;5003046;28;20193;-77
2023/03/05 03:39:31;;;;;;;16.07;7.90;;;;;;;;;;5007510;28;20175;-77
2023/03/05 03:41:56;;;;;;;17.37;8.47;;;;;;;;;;5010068;28;20274;-77
2023/03/05 03:44:21;;;;;;;16.57;8.20;;;;;;;;;;5007982;28;20260;-78
2023/03/05 03:46:47;;;;;;;18.33;8.47;;;;;;;;;;5000423;28;20210;-77
2023/03/05 03:49:14;;;;;;;13.80;7.87;;;;;;;;;;5007906;28;20195;-78
2023/03/05 03:51:39;;;;;;;16.57;7.83;;;;;;;;;;5004835;28;20261;-77
2023/03/05 03:54:04;;;;;;;23.80;10.13;;;;;;;;;;5007204;28;20279;-77
2023/03/05 03:56:29;;;;;;;16.97;8.10;;;;;;;;;;5005255;28;20175;-77
2023/03/05 03:58:55;;;;;;;16.13;8.40;;;;;;;;;;4998555;28;20211;-77
2023/03/05 04:01:20;;;;;;;18.83;8.70;;;;;;;;;;5005674;28;20214;-77
2023/03/05 04:03:46;;;;;;;16.00;7.90;;;;;;;;;;5022872;28;20206;-77
2023/03/05 04:06:11;;;;;;;14.90;8.03;;;;;;;;;;4997202;28;20183;-77
2023/03/05 04:08:37;;;;;;;16.87;7.87;;;;;;;;;;5025556;28;20175;-77
2023/03/05 04:11:02;;;;;;;18.73;8.40;;;;;;;;;;5004590;28;20278;-78
2023/03/05 04:13:27;;;;;;;19.07;8.80;;;;;;;;;;5002480;28;20200;-77
2023/03/05 04:15:53;;;;;;;17.17;7.97;;;;;;;;;;5027662;28;20210;-77
2023/03/05 04:18:18;;;;;;;17.80;8.43;;;;;;;;;;5020961;28;20186;-77
2023/03/05 04:20:44;;;;;;;13.90;8.07;;;;;;;;;;5024072;28;20214;-77
2023/03/05 04:23:09;;;;;;;14.73;7.90;;;;;;;;;;5021763;28;20171;-78
2023/03/05 04:25:34;;;;;;;17.27;8.30;;;;;;;;;;5022872;28;20205;-77
2023/03/05 04:27:59;;;;;;;18.17;9.87;;;;;;;;;;5045309;28;20340;-77
2023/03/05 04:30:25;;;;;;;17.23;8.57;;;;;;;;;;5019141;28;20187;-77
2023/03/05 04:32:50;;;;;;;18.20;8.63;;;;;;;;;;5024228;28;20185;-77
2023/03/05 04:35:15;;;;;;;18.10;8.63;;;;;;;;;;5022249;28;20199;-77
2023/03/05 04:37:40;;;;;;;17.43;9.50;;;;;;;;;;5020927;28;20273;-77
2023/03/05 04:40:06;;;;;;;16.13;8.33;;;;;;;;;;5017176;28;20182;-77
2023/03/05 04:42:31;;;;;;;20.50;9.47;;;;;;;;;;5027726;28;20186;-77
2023/03/05 04:44:56;;;;;;;19.07;9.63;;;;;;;;;;5028343;28;20188;-77
2023/03/05 04:47:22;;;;;;;17.03;9.97;;;;;;;;;;5025521;28;20213;-77
2023/03/05 04:49:47;;;;;;;19.80;10.00;;;;;;;;;;5039898;28;20187;-77
2023/03/05 04:52:13;;;;;;;19.13;8.93;;;;;;;;;;5021299;28;20217;-77
2023/03/05 04:54:38;;;;;;;15.53;9.20;;;;;;;;;;5047535;28;20209;-77
2023/03/05 04:57:04;;;;;;;16.23;8.80;;;;;;;;;;5024838;28;20186;-77
2023/03/05 04:59:29;;;;;;;21.43;10.37;;;;;;;;;;5028333;28;20241;-77
2023/03/05 05:01:55;;;;;;;17.97;9.47;;;;;;;;;;5035290;28;20265;-77
2023/03/05 05:04:20;;;;;;;21.60;9.67;;;;;;;;;;5044729;28;20273;-77
2023/03/05 05:06:45;;;;;;;23.20;10.37;;;;;;;;;;5026971;28;20189;-77
2023/03/05 05:09:10;;;;;;;17.80;8.93;;;;;;;;;;5018226;28;20189;-77
2023/03/05 05:11:36;;;;;;;20.73;9.83;;;;;;;;;;5030338;28;20225;-77
2023/03/05 05:14:01;;;;;;;22.03;10.10;;;;;;;;;;5030355;28;20320;-77
2023/03/05 05:16:26;;;;;;;18.47;10.17;;;;;;;;;;5022232;28;20323;-77
2023/03/05 05:18:51;;;;;;;21.90;9.97;;;;;;;;;;5008264;28;20182;-77
2023/03/05 05:21:17;;;;;;;22.40;10.20;;;;;;;;;;4999872;28;20175;-77
2023/03/05 05:23:43;;;;;;;19.23;10.83;;;;;;;;;;4998961;28;20187;-77
2023/03/05 05:26:08;;;;;;;19.00;9.97;;;;;;;;;;5005239;28;20179;-77
2023/03/05 05:28:34;;;;;;;24.23;10.87;;;;;;;;;;5003756;28;20175;-77
2023/03/05 05:31:00;;;;;;;24.80;10.37;;;;;;;;;;5000896;28;20185;-77
2023/03/05 05:33:25;;;;;;;23.03;10.47;;;;;;;;;;5005474;28;20171;-77
2023/03/05 05:35:50;;;;;;;23.47;9.90;;;;;;;;;;4998641;28;20207;-77
2023/03/05 05:38:16;;;;;;;16.80;9.03;;;;;;;;;;5009157;28;20189;-77
2023/03/05 05:40:41;;;;;;;20.13;10.57;;;;;;;;;;5007138;28;20290;-77
2023/03/05 05:43:07;;;;;;;20.60;9.47;;;;;;;;;;5005427;28;20205;-77
2023/03/05 05:45:32;;;;;;;15.77;8.93;;;;;;;;;;5005370;28;20202;-77
2023/03/05 05:47:57;;;;;;;17.80;9.07;;;;;;;;;;4998932;28;20175;-77
2023/03/05 05:50:22;;;;;;;20.57;10.17;;;;;;;;;;4996482;28;20182;-77
2023/03/05 05:52:49;;;;;;;19.67;10.60;;;;;;;;;;5017681;28;20223;-77
2023/03/05 05:55:14;;;;;;;21.33;9.10;;;;;;;;;;5007764;28;20226;-77
2023/03/05 05:57:40;;;;;;;19.20;8.20;;;;;;;;;;5001435;28;20199;-77
2023/03/05 06:00:06;;;;;;;17.93;8.70;;;;;;;;;;4997139;28;20175;-77
2023/03/05 06:02:32;;;;;;;21.50;9.80;;;;;;;;;;4999570;28;20189;-77
2023/03/05 06:04:57;;;;;;;18.77;10.90;;;;;;;;;;5006375;28;20171;-77
2023/03/05 06:07:22;;;;;;;18.97;9.60;;;;;;;;;;5003954;28;20194;-77
2023/03/05 06:09:47;;;;;;;19.03;8.60;;;;;;;;;;5000792;28;20225;-77
2023/03/05 06:12:13;;;;;;;19.03;10.83;;;;;;;;;;5005061;28;20230;-77
2023/03/05 06:14:38;;;;;;;16.47;9.50;;;;;;;;;;5009083;28;20203;-77
2023/03/05 06:17:03;;;;;;;15.13;10.03;;;;;;;;;;5008104;28;20275;-80
2023/03/05 06:19:28;;;;;;;24.10;9.63;;;;;;;;;;5001942;28;20194;-80
2023/03/05 06:21:54;;;;;;;20.17;8.80;;;;;;;;;;5009348;28;20178;-79
2023/03/05 06:24:22;;;;;;;18.17;9.70;;;;;;;;;;5007693;28;20195;-80
2023/03/05 06:26:48;;;;;;;16.27;8.67;;;;;;;;;;5006590;28;20198;-80
2023/03/05 06:29:13;;;;;;;13.90;8.73;;;;;;;;;;5003914;28;20210;-80
2023/03/05 06:31:39;;;;;;;17.40;9.27;;;;;;;;;;5024578;28;20174;-80
2023/03/05 06:34:04;;;;;;;20.07;10.43;;;;;;;;;;5007766;28;20211;-80
2023/03/05 06:36:29;;;;;;;15.77;9.43;;;;;;;;;;5006728;28;20274;-80
2023/03/05 06:38:55;;;;;;;21.03;11.77;;;;;;;;;;5005731;28;20262;-80
2023/03/05 06:41:21;;;;;;;17.80;9.80;;;;;;;;;;5018112;28;20183;-80
2023/03/05 06:43:47;;;;;;;18.30;9.37;;;;;;;;;;5026807;28;20183;-80
2023/03/05 06:46:15;;;;;;;18.67;9.63;;;;;;;;;;5021784;28;20180;-80
2023/03/05 06:48:42;;;;;;;20.63;10.70;;;;;;;;;;5005458;28;20193;-80
2023/03/05 06:51:13;;;;;;;22.07;10.17;;;;;;;;;;5007176;28;20183;-80
2023/03/05 06:53:38;;;;;;;19.80;10.07;;;;;;;;;;5006851;28;20213;-79
2023/03/05 06:56:04;;;;;;;21.20;9.73;;;;;;;;;;5007713;28;20292;-80
2023/03/05 06:58:29;;;;;;;18.07;10.47;;;;;;;;;;5005777;28;20234;-80
2023/03/05 07:00:54;;;;;;;18.00;9.77;;;;;;;;;;5007213;28;20215;-80
2023/03/05 07:03:19;;;;;;;20.90;10.10;;;;;;;;;;5002773;28;20198;-80
2023/03/05 07:05:45;;;;;;;22.37;11.70;;;;;;;;;;5001992;28;20184;-80
2023/03/05 07:08:10;;;;;;;17.60;10.80;;;;;;;;;;5002167;28;20190;-80
2023/03/05 07:10:39;;;;;;;21.80;10.80;;;;;;;;;;5002687;28;20281;-80
2023/03/05 07:13:05;;;;;;;21.90;9.90;;;;;;;;;;5020591;28;20210;-80
2023/03/05 07:15:30;;;;;;;20.63;10.13;;;;;;;;;;5006916;28;20251;-79
2023/03/05 07:17:55;;;;;;;22.90;10.60;;;;;;;;;;5001661;28;20230;-80
2023/03/05 07:20:21;;;;;;;29.57;16.83;;;;;;;;;;5007114;28;20185;-80
2023/03/05 07:22:46;;;;;;;82.53;40.47;;;;;;;;;;5004874;28;20222;-80
2023/03/05 07:25:11;;;;;;;25.63;14.40;;;;;;;;;;5005395;28;20236;-80
2023/03/05 07:27:36;;;;;;;21.10;13.93;;;;;;;;;;5004666;28;20188;-80
2023/03/05 07:30:02;;;;;;;21.97;11.33;;;;;;;;;;5008129;28;20186;-80
2023/03/05 07:32:27;;;;;;;18.73;11.87;;;;;;;;;;5007951;28;20182;-79
2023/03/05 07:34:52;;;;;;;16.97;10.57;;;;;;;;;;5025862;28;20330;-79
2023/03/05 07:37:18;;;;;;;20.07;12.07;;;;;;;;;;5007139;28;20234;-80
2023/03/05 07:39:43;;;;;;;17.23;10.30;;;;;;;;;;5000718;28;20183;-79
2023/03/05 07:42:08;;;;;;;17.50;11.53;;;;;;;;;;4999085;28;20189;-80
2023/03/05 07:44:33;;;;;;;18.07;9.87;;;;;;;;;;5009040;28;20309;-79
2023/03/05 07:46:58;;;;;;;22.13;10.73;;;;;;;;;;5023477;28;20182;-79
2023/03/05 07:49:24;;;;;;;21.73;10.37;;;;;;;;;;5005702;28;20202;-79
2023/03/05 07:51:49;;;;;;;17.57;10.20;;;;;;;;;;5004683;28;20268;-79
2023/03/05 07:54:14;;;;;;;19.67;9.53;;;;;;;;;;5002635;28;20206;-80
2023/03/05 07:56:39;;;;;;;13.43;8.63;;;;;;;;;;5021920;28;20179;-79
2023/03/05 07:59:06;;;;;;;17.30;9.03;;;;;;;;;;5001465;28;20230;-79
2023/03/05 08:01:32;;;;;;;15.17;8.97;;;;;;;;;;5002893;28;20190;-79
2023/03/05 08:03:58;;;;;;;17.30;10.60;;;;;;;;;;5020428;28;20179;-79
2023/03/05 08:06:25;;;;;;;18.97;9.83;;;;;;;;;;5015915;28;20182;-79
2023/03/05 08:08:50;;;;;;;15.93;8.73;;;;;;;;;;5023600;28;20183;-79
2023/03/05 08:11:15;;;;;;;16.17;8.70;;;;;;;;;;5020543;28;20314;-80
2023/03/05 08:13:42;;;;;;;16.23;8.00;;;;;;;;;;5006827;28;20174;-79
2023/03/05 08:16:10;;;;;;;18.97;10.00;;;;;;;;;;5000960;28;20205;-79
2023/03/05 08:18:35;;;;;;;18.63;9.63;;;;;;;;;;5017836;28;20253;-79
2023/03/05 08:21:01;;;;;;;17.90;10.00;;;;;;;;;;5022845;28;20236;-79
2023/03/05 08:23:26;;;;;;;18.23;10.00;;;;;;;;;;5020728;28;20178;-79
2023/03/05 08:25:51;;;;;;;19.13;9.67;;;;;;;;;;5037244;28;20174;-79
2023/03/05 08:28:18;;;;;;;16.67;9.00;;;;;;;;;;5019826;28;20178;-79
2023/03/05 08:30:44;;;;;;;17.63;9.93;;;;;;;;;;5024723;28;20186;-79
2023/03/05 08:33:09;;;;;;;22.80;9.70;;;;;;;;;;5016804;28;20201;-79
2023/03/05 08:35:34;;;;;;;16.90;9.43;;;;;;;;;;5024532;28;20275;-79
2023/03/05 08:37:59;;;;;;;18.47;10.10;;;;;;;;;;5025934;28;20197;-79
2023/03/05 08:40:25;;;;;;;17.20;9.43;;;;;;;;;;5018940;28;20186;-79
2023/03/05 08:42:50;;;;;;;19.57;9.97;;;;;;;;;;5042285;28;20228;-79
2023/03/05 08:45:16;;;;;;;16.27;8.43;;;;;;;;;;5022248;28;20223;-79
2023/03/05 08:47:42;;;;;;;17.50;8.90;;;;;;;;;;5023146;28;20186;-79
2023/03/05 08:50:08;;;;;;;22.57;11.17;;;;;;;;;;5025552;28;20185;-79
2023/03/05 08:52:33;;;;;;;16.10;9.40;;;;;;;;;;5024949;28;20210;-79
2023/03/05 08:54:58;;;;;;;16.40;8.53;;;;;;;;;;5020462;28;20222;-79
2023/03/05 08:57:23;;;;;;;19.57;10.07;;;;;;;;;;5039186;28;20171;-79
2023/03/05 08:59:48;;;;;;;18.73;10.20;;;;;;;;;;5040533;28;20209;-79
2023/03/05 09:02:14;;;;;;;17.83;10.23;;;;;;;;;;5019233;28;20233;-79
2023/03/05 09:04:39;;;;;;;20.57;12.10;;;;;;;;;;5022522;28;20268;-79
2023/03/05 09:07:04;;;;;;;20.60;11.83;;;;;;;;;;5028271;28;20178;-79
2023/03/05 09:09:31;;;;;;;18.33;11.17;;;;;;;;;;5017424;28;20182;-78
2023/03/05 09:11:57;;;;;;;22.90;11.77;;;;;;;;;;5014213;28;20206;-79
2023/03/05 09:14:22;;;;;;;20.07;10.10;;;;;;;;;;5019389;28;20194;-79
2023/03/05 09:16:47;;;;;;;19.10;11.50;;;;;;;;;;5026089;28;20218;-79
2023/03/05 09:19:13;;;;;;;20.10;11.07;;;;;;;;;;5038338;28;20174;-79
2023/03/05 09:21:39;;;;;;;22.07;12.67;;;;;;;;;;5028211;28;20188;-79
2023/03/05 09:24:04;;;;;;;23.63;12.73;;;;;;;;;;5021602;28;20176;-79
2023/03/05 09:26:30;;;;;;;17.67;10.90;;;;;;;;;;5025480;28;20236;-79
2023/03/05 09:28:55;;;;;;;20.63;11.17;;;;;;;;;;5028922;28;20196;-79
2023/03/05 09:31:20;;;;;;;20.30;11.63;;;;;;;;;;5026967;28;20209;-79
2023/03/05 09:33:46;;;;;;;21.67;11.47;;;;;;;;;;5027087;28;20178;-79
2023/03/05 09:36:21;;;;;;;24.80;11.83;;;;;;;;;;5024301;28;20260;-78
2023/03/05 09:38:46;;;;;;;17.77;9.67;;;;;;;;;;5020745;28;20254;-79
2023/03/05 09:41:24;;;;;;;19.10;9.77;;;;;;;;;;5025132;28;20269;-79
2023/03/05 09:43:58;;;;;;;19.87;11.33;;;;;;;;;;5022952;28;20233;-79
2023/03/05 09:46:23;;;;;;;18.10;10.20;;;;;;;;;;5044330;28;20200;-78
2023/03/05 09:49:11;;;;;;;19.33;10.53;;;;;;;;;;5033450;28;20209;-79
2023/03/05 09:51:39;;;;;;;18.50;10.80;;;;;;;;;;5026294;28;20182;-79
2023/03/05 09:54:19;;;;;;;23.10;11.97;;;;;;;;;;5026253;28;20178;-78
2023/03/05 09:56:49;;;;;;;17.33;10.93;;;;;;;;;;5026050;28;20178;-79
2023/03/05 09:59:34;;;;;;;16.47;9.47;;;;;;;;;;5024631;28;20205;-79
2023/03/05 10:02:02;;;;;;;17.00;10.27;;;;;;;;;;5040415;28;20257;-79
2023/03/05 10:04:27;;;;;;;15.07;9.23;;;;;;;;;;5032535;28;20179;-79
2023/03/05 10:06:59;;;;;;;17.50;11.10;;;;;;;;;;5022257;28;20274;-79
2023/03/05 10:09:46;;;;;;;15.47;9.00;;;;;;;;;;5040631;28;20256;-79
2023/03/05 10:12:18;;;;;;;18.93;9.10;;;;;;;;;;5024173;28;20206;-79
2023/03/05 10:14:43;;;;;;;18.20;9.27;;;;;;;;;;5021313;28;20244;-79
2023/03/05 10:17:18;;;;;;;14.63;8.60;;;;;;;;;;5016311;28;20231;-79
2023/03/05 10:19:49;;;;;;;12.17;5.23;;;;;;;;;;4999940;28;20183;-79
2023/03/05 10:22:28;;;;;;;16.10;8.43;;;;;;;;;;5009193;28;20179;-78
2023/03/05 10:25:09;;;;;;;15.30;9.17;;;;;;;;;;5015363;28;20183;-79
2023/03/05 10:27:37;;;;;;;15.23;8.20;;;;;;;;;;4999101;28;20246;-79
2023/03/05 10:30:02;;;;;;;18.17;8.70;;;;;;;;;;5012141;28;20233;-79
2023/03/05 10:32:27;;;;;;;16.50;9.33;;;;;;;;;;5003091;28;20181;-79
2023/03/05 10:34:56;;;;;;;16.13;8.03;;;;;;;;;;5003220;28;20207;-79
2023/03/05 10:37:33;;;;;;;16.87;8.87;;;;;;;;;;5007213;28;20209;-79
2023/03/05 10:39:58;;;;;;;16.13;9.67;;;;;;;;;;5013078;28;20265;-79
2023/03/05 10:42:27;;;;;;;16.93;9.33;;;;;;;;;;5010394;28;20266;-78
2023/03/05 10:44:52;;;;;;;14.97;10.00;;;;;;;;;;5008541;28;20193;-79
2023/03/05 10:47:22;;;;;;;18.03;10.43;;;;;;;;;;5003538;28;20180;-79
2023/03/05 10:49:52;;;;;;;19.60;12.83;;;;;;;;;;5000006;28;20175;-79
2023/03/05 10:52:38;;;;;;;16.57;9.03;;;;;;;;;;5003008;28;20209;-79
2023/03/05 10:55:17;;;;;;;29.10;15.60;;;;;;;;;;5031653;28;20210;-79
2023/03/05 10:57:43;;;;;;;24.33;14.37;;;;;;;;;;4997368;28;20174;-78
2023/03/05 11:00:25;;;;;;;20.73;13.00;;;;;;;;;;5008399;28;20179;-79
2023/03/05 11:03:00;;;;;;;30.27;15.50;;;;;;;;;;5008636;28;20269;-79
2023/03/05 11:05:38;;;;;;;25.97;14.03;;;;;;;;;;4997709;28;20195;-79
2023/03/05 11:08:22;;;;;;;25.67;15.50;;;;;;;;;;5002700;28;20265;-78
2023/03/05 11:11:00;;;;;;;24.07;14.07;;;;;;;;;;5005388;28;20183;-79
2023/03/05 11:13:26;;;;;;;22.57;10.83;;;;;;;;;;5026799;28;20190;-79
2023/03/05 11:16:01;;;;;;;23.63;13.43;;;;;;;;;;5005665;28;20206;-79
2023/03/05 11:18:33;;;;;;;25.60;13.77;;;;;;;;;;5009824;28;20218;-79
2023/03/05 11:21:26;;;;;;;24.50;12.97;;;;;;;;;;5017874;28;20226;-79
2023/03/05 11:24:12;;;;;;;28.03;14.23;;;;;;;;;;5007585;28;20184;-79
2023/03/05 11:26:44;;;;;;;20.87;10.50;;;;;;;;;;5009830;28;20189;-79
2023/03/05 11:29:15;;;;;;;23.57;10.83;;;;;;;;;;5015668;28;20195;-79
2023/03/05 11:31:40;;;;;;;23.23;12.03;;;;;;;;;;5010958;28;20183;-79
2023/03/05 11:34:19;;;;;;;23.53;13.10;;;;;;;;;;5025258;28;20187;-79
2023/03/05 11:36:57;;;;;;;19.77;11.43;;;;;;;;;;5005229;28;20206;-79
2023/03/05 11:39:23;;;;;;;19.83;10.77;;;;;;;;;;5010133;28;20269;-78
2023/03/05 11:41:50;;;;;;;20.63;10.43;;;;;;;;;;5009981;28;20236;-78
2023/03/05 11:44:32;;;;;;;20.07;12.00;;;;;;;;;;5025938;28;20183;-79
2023/03/05 11:47:02;;;;;;;21.43;11.80;;;;;;;;;;5008069;28;20179;-78
2023/03/05 11:49:28;;;;;;;23.87;13.00;;;;;;;;;;5026063;28;20240;-78
2023/03/05 11:52:00;;;;;;;24.87;12.37;;;;;;;;;;4997782;28;20203;-78
2023/03/05 11:54:30;;;;;;;22.67;11.80;;;;;;;;;;5024619;28;20516;-78
2023/03/05 11:56:56;;;;;;;22.77;11.90;;;;;;;;;;5000467;28;20183;-78
2023/03/05 11:59:25;;;;;;;24.07;14.80;;;;;;;;;;5010545;28;20171;-78
2023/03/05 12:01:52;;;;;;;19.73;13.10;;;;;;;;;;5023593;28;20183;-77
2023/03/05 12:04:18;;;;;;;27.83;13.73;;;;;;;;;;5014360;28;20190;-78
2023/03/05 12:06:52;;;;;;;24.93;12.77;;;;;;;;;;5009397;28;20186;-78
2023/03/05 12:09:25;;;;;;;20.30;11.97;;;;;;;;;;5003944;28;20184;-78
2023/03/05 12:11:52;;;;;;;20.00;11.60;;;;;;;;;;5004551;28;20203;-78
2023/03/05 12:14:27;;;;;;;17.80;10.80;;;;;;;;;;5006587;28;20226;-78
2023/03/05 12:17:31;;;;;;;22.93;12.97;;;;;;;;;;5001994;28;20234;-78
2023/03/05 12:19:56;;;;;;;26.70;14.40;;;;;;;;;;4952545;28;20242;-78
2023/03/05 12:22:23;;;;;;;21.63;11.83;;;;;;;;;;4946949;28;20189;-78
2023/03/05 12:24:49;;;;;;;22.77;12.50;;;;;;;;;;4983629;28;20190;-78
2023/03/05 12:27:16;;;;;;;24.33;13.10;;;;;;;;;;5006705;28;20186;-78
2023/03/05 12:29:42;;;;;;;17.53;11.10;;;;;;;;;;5001602;28;20270;-78
2023/03/05 12:32:31;;;;;;;23.50;14.00;;;;;;;;;;4998808;28;20232;-78
2023/03/05 12:34:57;;;;;;;22.93;12.83;;;;;;;;;;4985811;28;20219;-78
2023/03/05 12:37:22;;;;;;;27.73;15.83;;;;;;;;;;5008927;28;20260;-78
2023/03/05 12:40:02;;;;;;;26.90;15.17;;;;;;;;;;5000302;28;20275;-78
2023/03/05 12:42:28;;;;;;;27.50;12.30;;;;;;;;;;5008626;28;20175;-78
2023/03/05 12:45:08;;;;;;;24.13;13.17;;;;;;;;;;5010937;28;20183;-78
2023/03/05 12:47:34;;;;;;;21.33;12.80;;;;;;;;;;5019817;28;20261;-78
2023/03/05 12:50:00;;;;;;;24.30;12.93;;;;;;;;;;4994681;28;20229;-78
2023/03/05 12:52:28;;;;;;;26.23;13.67;;;;;;;;;;5011038;28;20212;-78
2023/03/05 12:54:56;;;;;;;24.70;13.53;;;;;;;;;;5000614;28;20207;-78
2023/03/05 12:57:23;;;;;;;22.17;13.57;;;;;;;;;;5016847;28;20175;-78
2023/03/05 12:59:50;;;;;;;23.03;13.53;;;;;;;;;;5004941;28;20186;-78
2023/03/05 13:02:27;;;;;;;20.43;11.27;;;;;;;;;;5002324;28;20187;-78
2023/03/05 13:04:56;;;;;;;24.17;12.70;;;;;;;;;;4993743;28;20194;-78
2023/03/05 13:07:21;;;;;;;20.67;10.43;;;;;;;;;;5018045;28;20217;-78
2023/03/05 13:09:54;;;;;;;22.20;13.27;;;;;;;;;;5007228;28;20214;-78
2023/03/05 13:12:20;;;;;;;20.00;10.77;;;;;;;;;;4999636;28;20217;-78
2023/03/05 13:14:46;;;;;;;22.57;13.30;;;;;;;;;;5023768;28;20206;-79
2023/03/05 13:17:23;;;;;;;27.20;13.80;;;;;;;;;;5005466;28;20226;-78
2023/03/05 13:19:49;;;;;;;29.13;15.03;;;;;;;;;;5009953;28;20182;-79
2023/03/05 13:22:14;;;;;;;21.03;11.40;;;;;;;;;;5003454;28;20189;-78
2023/03/05 13:24:39;;;;;;;24.00;13.43;;;;;;;;;;5002594;28;20210;-78
2023/03/05 13:27:43;;;;;;;22.47;12.53;;;;;;;;;;5001706;28;20188;-78
2023/03/05 13:30:38;;;;;;;22.13;11.90;;;;;;;;;;4947650;29;20207;-78
2023/03/05 13:33:04;;;;;;;24.43;13.73;;;;;;;;;;4923082;29;20193;-78
2023/03/05 13:35:30;;;;;;;18.63;10.87;;;;;;;;;;4940094;29;20225;-78
2023/03/05 13:37:56;;;;;;;22.23;12.83;;;;;;;;;;4929065;29;20201;-78
2023/03/05 13:40:25;;;;;;;18.80;11.57;;;;;;;;;;4922721;29;20179;-78
2023/03/05 13:42:52;;;;;;;16.63;10.50;;;;;;;;;;4935816;29;20272;-78
2023/03/05 13:45:22;;;;;;;24.23;12.90;;;;;;;;;;4946397;28;20365;-78
2023/03/05 13:47:52;;;;;;;25.03;12.60;;;;;;;;;;4929425;29;20196;-78
2023/03/05 13:50:22;;;;;;;22.20;11.97;;;;;;;;;;4927128;29;20185;-78
2023/03/05 13:52:47;;;;;;;22.43;11.77;;;;;;;;;;4938875;29;20189;-78
2023/03/05 13:55:15;;;;;;;23.13;12.50;;;;;;;;;;4921712;29;20214;-78
2023/03/05 13:57:44;;;;;;;23.87;12.63;;;;;;;;;;4922635;29;20254;-78
2023/03/05 14:00:27;;;;;;;22.93;13.27;;;;;;;;;;4959311;28;20187;-78
2023/03/05 14:02:53;;;;;;;17.63;10.37;;;;;;;;;;5004575;28;20183;-78
2023/03/05 14:05:18;;;;;;;24.27;11.57;;;;;;;;;;5006332;28;20254;-78
2023/03/05 14:07:46;;;;;;;19.83;11.30;;;;;;;;;;5006615;28;20183;-78
2023/03/05 14:10:28;;;;;;;19.93;11.17;;;;;;;;;;5002449;28;20191;-78
2023/03/05 14:12:54;;;;;;;22.93;12.77;;;;;;;;;;4998156;28;20219;-78
2023/03/05 14:15:27;;;;;;;27.57;13.00;;;;;;;;;;5002540;28;20207;-78
2023/03/05 14:18:06;;;;;;;22.53;11.70;;;;;;;;;;5001380;28;20233;-78
2023/03/05 14:20:31;;;;;;;18.43;12.10;;;;;;;;;;5002951;28;20243;-78
2023/03/05 14:22:58;;;;;;;22.70;13.67;;;;;;;;;;5018867;28;20261;-78
2023/03/05 14:25:23;;;;;;;23.73;12.57;;;;;;;;;;5016771;28;20175;-78